Terminal Aerodrome Forecast
Issued by NWS

Home | Current Version | Previous Version | Text Only | Print | Product List | Glossary On
Versions: 1 2 3 4 5 6 7 8 9 10 11 12 13 14 15 16 17 18 19 20 21 22 23
000
FTUS41 KPBZ 172107 AAA
TAFAGC
TAF AMD
KAGC 172107Z 1721/1818 17005KT P6SM SCT150
     FM180500 15004KT P6SM BKN100 WS020/21035KT
     FM181100 18006KT 6SM -RA OVC070 WS020/22040KT
     FM181500 20011G22KT 4SM -RA BR OVC015=

USA.gov is the U.S. government's official web portal to all federal, state and local government web resources and services.